PWSweather.com
Personal Weather Stations
Station Observations
INORDPAS37
Bondues, BonduesFR 59910

BonduesBonduesFR 59910

Lat: 50.7, Lon: 3.09

Elevation: 102

Station Type: Netatmo

http://bondues.meteoamikuze.com

High Low Average
Temperature 68.7°F20.4°C 55.6°F13.1°C 62.1°F16.7°C
Dew Point 52.0°F11.1°C 43.3°F6.3°C 47.1°F8.4°C
Winds 10.5 mph 16.9 kmh Calm Calm 3.0 mph S4.8 kmh S
Wind Gusts 22.4 mph36.0 kmh 0.7 mph1.1 kmh 7.0 mph11.3 kmh
Humidity 74% 52% 63%
Pressure 30.09 in1019.0 mb 29.76 in1007.8 mb -
Precipitation 0.81 in20.6 mm - -
Hour Temp Dew Point Humidity Winds Wind Gusts Pressure Precip Precip Rate Daily Precip Total
12:02 AM 63.5°F17.5°C 44.1°F6.7°C 52% 0.7 mph SE1.1 kmh SE 1.3 mph2.1 kmh 29.99 in1015.6 mb 0.00 in0.0 mm 0.00 in0.0 mm 0.00 in0.0 mm
12:22 AM 63.3°F17.4°C 44.1°F6.7°C 52% 0.7 mph E1.1 kmh E 1.8 mph2.9 kmh 29.99 in1015.6 mb 0.00 in0.0 mm 0.00 in0.0 mm 0.00 in0.0 mm
12:42 AM 63.5°F17.5°C 44.1°F6.7°C 52% Calm Calm 0.7 mph1.1 kmh 29.99 in1015.6 mb 0.00 in0.0 mm 0.00 in0.0 mm 0.00 in0.0 mm
01:03 AM 63.7°F17.6°C 44.8°F7.1°C 53% 0.7 mph NE1.1 kmh NE 1.3 mph2.1 kmh 29.98 in1015.2 mb 0.00 in0.0 mm 0.00 in0.0 mm 0.00 in0.0 mm
01:23 AM 63.9°F17.7°C 45.0°F7.2°C 53% 0.7 mph N1.1 kmh N 1.3 mph2.1 kmh 29.98 in1015.2 mb 0.00 in0.0 mm 0.00 in0.0 mm 0.00 in0.0 mm
01:43 AM 64.0°F17.8°C 45.5°F7.5°C 54% 0.7 mph W1.1 kmh W 1.3 mph2.1 kmh 29.98 in1015.2 mb 0.00 in0.0 mm 0.00 in0.0 mm 0.00 in0.0 mm
02:03 AM 64.0°F17.8°C 45.5°F7.5°C 54% 0.7 mph NW1.1 kmh NW 1.3 mph2.1 kmh 29.97 in1014.9 mb 0.00 in0.0 mm 0.00 in0.0 mm 0.00 in0.0 mm
02:24 AM 64.0°F17.8°C 45.9°F7.7°C 55% 0.7 mph NE1.1 kmh NE 2.5 mph4.0 kmh 29.96 in1014.6 mb 0.00 in0.0 mm 0.00 in0.0 mm 0.00 in0.0 mm
02:43 AM 64.0°F17.8°C 45.5°F7.5°C 54% 0.7 mph E1.1 kmh E 2.5 mph4.0 kmh 29.96 in1014.6 mb 0.00 in0.0 mm 0.00 in0.0 mm 0.00 in0.0 mm
03:04 AM 64.2°F17.9°C 45.7°F7.6°C 54% 0.7 mph NNE1.1 kmh NNE 1.8 mph2.9 kmh 29.94 in1013.9 mb 0.00 in0.0 mm 0.00 in0.0 mm 0.00 in0.0 mm
03:24 AM 64.0°F17.8°C 45.5°F7.5°C 54% 0.7 mph NNW1.1 kmh NNW 1.3 mph2.1 kmh 29.95 in1014.2 mb 0.00 in0.0 mm 0.00 in0.0 mm 0.00 in0.0 mm
03:44 AM 63.5°F17.5°C 45.0°F7.2°C 54% 0.7 mph N1.1 kmh N 1.3 mph2.1 kmh 29.94 in1013.9 mb 0.00 in0.0 mm 0.00 in0.0 mm 0.00 in0.0 mm
04:05 AM 62.8°F17.1°C 44.2°F6.8°C 54% 0.7 mph NW1.1 kmh NW 1.3 mph2.1 kmh 29.94 in1013.9 mb 0.00 in0.0 mm 0.00 in0.0 mm 0.00 in0.0 mm
04:24 AM 62.1°F16.7°C 44.1°F6.7°C 55% 0.7 mph N1.1 kmh N 1.3 mph2.1 kmh 29.93 in1013.5 mb 0.00 in0.0 mm 0.00 in0.0 mm 0.00 in0.0 mm
04:45 AM 61.3°F16.3°C 43.3°F6.3°C 55% 0.7 mph NNE1.1 kmh NNE 1.8 mph2.9 kmh 29.92 in1013.2 mb 0.00 in0.0 mm 0.00 in0.0 mm 0.00 in0.0 mm
05:05 AM 61.2°F16.2°C 43.5°F6.4°C 56% 0.7 mph N1.1 kmh N 1.8 mph2.9 kmh 29.92 in1013.2 mb 0.00 in0.0 mm 0.00 in0.0 mm 0.00 in0.0 mm
05:25 AM 61.0°F16.1°C 43.9°F6.6°C 57% 0.7 mph NNE1.1 kmh NNE 1.8 mph2.9 kmh 29.93 in1013.5 mb 0.00 in0.0 mm 0.00 in0.0 mm 0.00 in0.0 mm
05:45 AM 61.2°F16.2°C 44.1°F6.7°C 57% 1.3 mph N2.1 kmh N 3.8 mph6.1 kmh 29.91 in1012.9 mb 0.00 in0.0 mm 0.00 in0.0 mm 0.00 in0.0 mm
06:05 AM 61.7°F16.5°C 44.4°F6.9°C 57% 1.3 mph N2.1 kmh N 3.1 mph5.0 kmh 29.91 in1012.9 mb 0.00 in0.0 mm 0.00 in0.0 mm 0.00 in0.0 mm
06:26 AM 62.4°F16.9°C 45.1°F7.3°C 57% 1.3 mph NE2.1 kmh NE 4.9 mph7.9 kmh 29.89 in1012.2 mb 0.00 in0.0 mm 0.00 in0.0 mm 0.00 in0.0 mm
06:46 AM 63.1°F17.3°C 45.5°F7.5°C 56% 1.3 mph NNE2.1 kmh NNE 4.3 mph6.9 kmh 29.88 in1011.9 mb 0.00 in0.0 mm 0.00 in0.0 mm 0.00 in0.0 mm
07:06 AM 63.5°F17.5°C 45.9°F7.7°C 56% 1.3 mph NE2.1 kmh NE 3.1 mph5.0 kmh 29.88 in1011.9 mb 0.00 in0.0 mm 0.00 in0.0 mm 0.00 in0.0 mm
07:26 AM 63.9°F17.7°C 46.0°F7.8°C 56% 0.7 mph 1.1 kmh 1.8 mph2.9 kmh 29.88 in1011.9 mb 0.00 in0.0 mm 0.00 in0.0 mm 0.00 in0.0 mm
07:47 AM 64.2°F17.9°C 46.4°F8.0°C 56% 1.3 mph N2.1 kmh N 2.5 mph4.0 kmh 29.87 in1011.5 mb 0.00 in0.0 mm 0.00 in0.0 mm 0.00 in0.0 mm
08:06 AM 64.9°F18.3°C 47.1°F8.4°C 56% 2.5 mph NE4.0 kmh NE 5.6 mph9.0 kmh 29.87 in1011.5 mb 0.00 in0.0 mm 0.00 in0.0 mm 0.00 in0.0 mm
08:27 AM 65.5°F18.6°C 47.7°F8.7°C 56% 1.8 mph ENE2.9 kmh ENE 4.9 mph7.9 kmh 29.87 in1011.5 mb 0.00 in0.0 mm 0.00 in0.0 mm 0.00 in0.0 mm
08:47 AM 66.0°F18.9°C 48.2°F9.0°C 56% 1.8 mph NE2.9 kmh NE 4.9 mph7.9 kmh 29.84 in1010.5 mb 0.00 in0.0 mm 0.00 in0.0 mm 0.00 in0.0 mm
09:06 AM 67.1°F19.5°C 48.7°F9.3°C 55% 0.7 mph N1.1 kmh N 3.8 mph6.1 kmh 29.84 in1010.5 mb 0.00 in0.0 mm 0.00 in0.0 mm 0.00 in0.0 mm
09:27 AM 68.2°F20.1°C 49.8°F9.9°C 55% 3.8 mph NE6.1 kmh NE 11.9 mph19.2 kmh 29.83 in1010.2 mb 0.00 in0.0 mm 0.00 in0.0 mm 0.00 in0.0 mm
09:46 AM 68.2°F20.1°C 49.8°F9.9°C 55% 1.3 mph NNE2.1 kmh NNE 3.1 mph5.0 kmh 29.82 in1009.8 mb 0.00 in0.0 mm 0.00 in0.0 mm 0.00 in0.0 mm
10:07 AM 68.7°F20.4°C 50.2°F10.1°C 55% 1.3 mph NE2.1 kmh NE 3.8 mph6.1 kmh 29.81 in1009.5 mb 0.00 in0.0 mm 0.00 in0.0 mm 0.00 in0.0 mm
10:23 AM 68.7°F20.4°C 49.8°F9.9°C 54% 1.8 mph NE2.9 kmh NE 4.3 mph6.9 kmh 29.81 in1009.5 mb 0.00 in0.0 mm 0.00 in0.0 mm 0.00 in0.0 mm
10:37 AM 68.0°F20.0°C 49.6°F9.8°C 55% 1.8 mph ENE2.9 kmh ENE 5.6 mph9.0 kmh 29.81 in1009.5 mb 0.01 in0.3 mm 0.05 in1.3 mm 0.01 in0.3 mm
10:56 AM 66.2°F19.0°C 48.7°F9.3°C 57% 0.7 mph NW1.1 kmh NW 1.8 mph2.9 kmh 29.82 in1009.8 mb 0.07 in1.8 mm 0.18 in4.6 mm 0.07 in1.8 mm
11:17 AM 64.9°F18.3°C 48.0°F8.9°C 58% 1.3 mph SW2.1 kmh SW 3.8 mph6.1 kmh 29.82 in1009.8 mb 0.17 in4.3 mm 0.17 in4.3 mm 0.17 in4.3 mm
11:31 AM 64.2°F17.9°C 47.7°F8.7°C 59% 3.8 mph SW6.1 kmh SW 6.9 mph11.1 kmh 29.82 in1009.8 mb 0.43 in10.9 mm 1.09 in27.7 mm 0.47 in11.9 mm
11:50 AM 63.3°F17.4°C 47.7°F8.7°C 61% 3.8 mph SW6.1 kmh SW 6.9 mph11.1 kmh 29.80 in1009.1 mb 0.48 in12.2 mm 0.15 in3.8 mm 0.56 in14.2 mm
12:11 PM 62.6°F17.0°C 47.8°F8.8°C 63% 3.8 mph SW6.1 kmh SW 11.9 mph19.2 kmh 29.79 in1008.8 mb 0.18 in4.6 mm 0.00 in0.0 mm 0.57 in14.5 mm
12:30 PM 62.6°F17.0°C 48.2°F9.0°C 64% 4.3 mph SW6.9 kmh SW 13.0 mph20.9 kmh 29.78 in1008.5 mb 0.08 in2.0 mm 0.00 in0.0 mm 0.61 in15.5 mm
12:51 PM 62.6°F17.0°C 48.6°F9.2°C 65% 4.3 mph WSW6.9 kmh WSW 11.9 mph19.2 kmh 29.78 in1008.5 mb 0.04 in1.0 mm 0.00 in0.0 mm 0.61 in15.5 mm
01:00 PM 62.6°F17.0°C 48.6°F9.2°C 65% 3.1 mph SW5.0 kmh SW 8.1 mph13.0 kmh 29.78 in1008.5 mb 0.02 in0.5 mm 0.00 in0.0 mm 0.62 in15.7 mm
01:21 PM 62.6°F17.0°C 48.6°F9.2°C 65% 3.8 mph WSW6.1 kmh WSW 11.9 mph19.2 kmh 29.76 in1007.8 mb 0.04 in1.0 mm 0.06 in1.5 mm 0.65 in16.5 mm
01:40 PM 62.8°F17.1°C 49.3°F9.6°C 66% 3.1 mph SW5.0 kmh SW 8.1 mph13.0 kmh 29.76 in1007.8 mb 0.02 in0.5 mm 0.00 in0.0 mm 0.66 in16.8 mm
02:21 PM 62.8°F17.1°C 50.0°F10.0°C 68% 4.3 mph WSW6.9 kmh WSW 8.1 mph13.0 kmh 29.76 in1007.8 mb 0.06 in1.5 mm 0.13 in3.3 mm 0.72 in18.3 mm
02:43 PM 62.4°F16.9°C 50.0°F10.0°C 69% 8.7 mph SW14.0 kmh SW 12.5 mph20.1 kmh 29.78 in1008.5 mb 0.06 in1.5 mm 0.00 in0.0 mm 0.72 in18.3 mm
03:03 PM 62.4°F16.9°C 50.0°F10.0°C 69% 7.4 mph SW11.9 kmh SW 10.5 mph16.9 kmh 29.79 in1008.8 mb 0.02 in0.5 mm 0.00 in0.0 mm 0.73 in18.5 mm
03:23 PM 63.0°F17.2°C 51.1°F10.6°C 70% 4.3 mph WSW6.9 kmh WSW 14.3 mph23.0 kmh 29.79 in1008.8 mb 0.02 in0.5 mm 0.00 in0.0 mm 0.73 in18.5 mm
03:43 PM 63.1°F17.3°C 51.3°F10.7°C 70% 7.4 mph SW11.9 kmh SW 10.5 mph16.9 kmh 29.79 in1008.8 mb 0.01 in0.3 mm 0.00 in0.0 mm 0.73 in18.5 mm
04:03 PM 63.1°F17.3°C 51.3°F10.7°C 70% 3.8 mph WSW6.1 kmh WSW 7.4 mph11.9 kmh 29.80 in1009.1 mb 0.00 in0.0 mm 0.00 in0.0 mm 0.73 in18.5 mm
04:23 PM 63.5°F17.5°C 52.0°F11.1°C 71% 7.4 mph SW11.9 kmh SW 14.3 mph23.0 kmh 29.83 in1010.2 mb 0.00 in0.0 mm 0.00 in0.0 mm 0.73 in18.5 mm
04:40 PM 63.3°F17.4°C 51.8°F11.0°C 71% 6.9 mph SW11.1 kmh SW 16.8 mph27.0 kmh 29.83 in1010.2 mb 0.00 in0.0 mm 0.00 in0.0 mm 0.73 in18.5 mm
05:05 PM 62.2°F16.8°C 50.7°F10.4°C 71% 9.4 mph W15.1 kmh W 16.1 mph25.9 kmh 29.85 in1010.8 mb 0.06 in1.5 mm 0.10 in2.5 mm 0.79 in20.1 mm
05:27 PM 60.3°F15.7°C 49.3°F9.6°C 72% 9.4 mph W15.1 kmh W 14.3 mph23.0 kmh 29.87 in1011.5 mb 0.06 in1.5 mm 0.02 in0.5 mm 0.80 in20.3 mm
05:47 PM 58.8°F14.9°C 47.8°F8.8°C 72% 10.5 mph W16.9 kmh W 18.6 mph29.9 kmh 29.90 in1012.5 mb 0.06 in1.5 mm 0.00 in0.0 mm 0.80 in20.3 mm
06:04 PM 58.3°F14.6°C 47.7°F8.7°C 73% 9.4 mph WNW15.1 kmh WNW 22.4 mph36.0 kmh 29.91 in1012.9 mb 0.01 in0.3 mm 0.00 in0.0 mm 0.80 in20.3 mm
06:24 PM 58.1°F14.5°C 47.5°F8.6°C 73% 7.4 mph W11.9 kmh W 13.0 mph20.9 kmh 29.91 in1012.9 mb 0.01 in0.3 mm 0.00 in0.0 mm 0.80 in20.3 mm
06:44 PM 58.1°F14.5°C 47.5°F8.6°C 73% 8.1 mph W13.0 kmh W 15.0 mph24.1 kmh 29.93 in1013.5 mb 0.01 in0.3 mm 0.00 in0.0 mm 0.80 in20.3 mm
07:04 PM 57.9°F14.4°C 47.3°F8.5°C 73% 6.9 mph WNW11.1 kmh WNW 12.5 mph20.1 kmh 29.94 in1013.9 mb 0.00 in0.0 mm 0.00 in0.0 mm 0.80 in20.3 mm
07:24 PM 57.9°F14.4°C 47.3°F8.5°C 73% 4.3 mph WNW6.9 kmh WNW 11.2 mph18.0 kmh 29.96 in1014.6 mb 0.01 in0.3 mm 0.01 in0.3 mm 0.81 in20.6 mm
07:44 PM 57.7°F14.3°C 47.1°F8.4°C 73% 6.9 mph WNW11.1 kmh WNW 12.5 mph20.1 kmh 29.98 in1015.2 mb 0.01 in0.3 mm 0.01 in0.3 mm 0.81 in20.6 mm
08:05 PM 57.9°F14.4°C 47.3°F8.5°C 73% 3.1 mph W5.0 kmh W 4.9 mph7.9 kmh 29.99 in1015.6 mb 0.01 in0.3 mm 0.00 in0.0 mm 0.81 in20.6 mm
08:25 PM 57.9°F14.4°C 47.3°F8.5°C 73% 3.8 mph W6.1 kmh W 9.4 mph15.1 kmh 30.01 in1016.3 mb 0.00 in0.0 mm 0.00 in0.0 mm 0.81 in20.6 mm
08:45 PM 58.1°F14.5°C 48.0°F8.9°C 74% 3.8 mph WNW6.1 kmh WNW 8.7 mph14.0 kmh 30.03 in1016.9 mb 0.00 in0.0 mm 0.00 in0.0 mm 0.81 in20.6 mm
09:05 PM 58.1°F14.5°C 47.5°F8.6°C 73% 2.5 mph W4.0 kmh W 6.9 mph11.1 kmh 30.04 in1017.3 mb 0.00 in0.0 mm 0.00 in0.0 mm 0.81 in20.6 mm
09:25 PM 57.9°F14.4°C 46.9°F8.3°C 72% 1.8 mph WSW2.9 kmh WSW 5.6 mph9.0 kmh 30.04 in1017.3 mb 0.00 in0.0 mm 0.00 in0.0 mm 0.81 in20.6 mm
09:45 PM 57.4°F14.1°C 46.4°F8.0°C 72% 2.5 mph WSW4.0 kmh WSW 6.9 mph11.1 kmh 30.05 in1017.6 mb 0.00 in0.0 mm 0.00 in0.0 mm 0.81 in20.6 mm
10:05 PM 56.8°F13.8°C 45.5°F7.5°C 71% 1.8 mph WSW2.9 kmh WSW 3.8 mph6.1 kmh 30.05 in1017.6 mb 0.00 in0.0 mm 0.00 in0.0 mm 0.81 in20.6 mm
10:25 PM 56.1°F13.4°C 44.8°F7.1°C 71% 3.1 mph WSW5.0 kmh WSW 6.9 mph11.1 kmh 30.06 in1017.9 mb 0.00 in0.0 mm 0.00 in0.0 mm 0.81 in20.6 mm
10:35 PM 55.9°F13.3°C 44.6°F7.0°C 71% 3.1 mph SW5.0 kmh SW 6.9 mph11.1 kmh 30.07 in1018.3 mb 0.00 in0.0 mm 0.00 in0.0 mm 0.81 in20.6 mm
11:05 PM 55.6°F13.1°C 44.2°F6.8°C 71% 1.8 mph SW2.9 kmh SW 3.8 mph6.1 kmh 30.07 in1018.3 mb 0.00 in0.0 mm 0.00 in0.0 mm 0.61 in15.5 mm
11:26 PM 55.8°F13.2°C 44.4°F6.9°C 71% 1.8 mph SW2.9 kmh SW 4.3 mph6.9 kmh 30.08 in1018.6 mb 0.00 in0.0 mm 0.00 in0.0 mm 0.61 in15.5 mm
11:45 PM 55.8°F13.2°C 44.4°F6.9°C 71% 3.1 mph SW5.0 kmh SW 5.6 mph9.0 kmh 30.09 in1019.0 mb 0.00 in0.0 mm 0.00 in0.0 mm 0.61 in15.5 mm